Time;durP1;ratioP1;P1;durP2;ratioP2;P2;SDS_P1;SDS_P2;PMS_P1;PMS_P2;Temp;Humidity;BMP_temperature;BMP_pressure;BME280_temperature;BME280_humidity;BME280_pressure;Samples;Min_cycle;Max_cycle;Signal;HPM_P1;HPM_P2
2022/05/16 00:00:24;;;;;;;4.63;3.10;;;16.50;99.90;;;;;;5016100;28;20221;-38
2022/05/16 00:02:50;;;;;;;4.40;2.80;;;16.40;99.90;;;;;;4999943;28;20175;-40
2022/05/16 00:05:17;;;;;;;2.90;2.70;;;16.40;99.90;;;;;;4999899;28;20198;-37
2022/05/16 00:07:43;;;;;;;4.07;2.93;;;16.50;99.90;;;;;;4999764;28;20175;-38
2022/05/16 00:10:09;;;;;;;4.07;3.20;;;16.40;99.90;;;;;;4999640;28;20186;-36
2022/05/16 00:12:35;;;;;;;4.93;3.17;;;16.40;99.90;;;;;;5016090;28;20224;-37
2022/05/16 00:15:03;;;;;;;5.83;3.20;;;16.20;99.90;;;;;;4999753;28;20226;-37
2022/05/16 00:17:29;;;;;;;2.97;2.57;;;16.20;99.90;;;;;;4999048;28;20276;-39
2022/05/16 00:19:55;;;;;;;5.67;3.03;;;16.20;99.90;;;;;;4999391;28;20210;-38
2022/05/16 00:22:20;;;;;;;5.33;2.93;;;16.20;99.90;;;;;;4999650;28;20249;-38
2022/05/16 00:24:46;;;;;;;4.90;2.70;;;16.00;99.90;;;;;;5015924;28;20201;-38
2022/05/16 00:27:12;;;;;;;3.97;3.00;;;16.00;99.90;;;;;;5015790;28;20231;-38
2022/05/16 00:29:39;;;;;;;3.80;2.70;;;16.00;99.90;;;;;;4999367;28;20189;-37
2022/05/16 00:32:06;;;;;;;3.30;2.90;;;16.00;99.90;;;;;;5015518;28;20209;-37
2022/05/16 00:34:32;;;;;;;3.27;2.90;;;16.00;99.90;;;;;;5033345;28;20217;-39
2022/05/16 00:36:59;;;;;;;3.37;2.90;;;15.90;99.90;;;;;;4999723;28;20182;-37
2022/05/16 00:39:26;;;;;;;5.10;2.97;;;15.80;99.90;;;;;;5014630;28;20226;-39
2022/05/16 00:41:53;;;;;;;4.43;3.07;;;15.80;99.90;;;;;;4999310;28;20191;-36
2022/05/16 00:44:20;;;;;;;3.00;2.80;;;15.70;99.90;;;;;;4998769;28;20170;-37
2022/05/16 00:46:48;;;;;;;4.40;3.10;;;15.60;99.90;;;;;;5033437;28;20179;-37
2022/05/16 00:49:23;;;;;;;5.07;3.13;;;15.60;99.90;;;;;;5015289;28;20216;-37
2022/05/16 00:51:58;;;;;;;3.27;2.90;;;15.70;99.90;;;;;;5015414;28;20186;-37
2022/05/16 00:54:37;;;;;;;4.13;2.93;;;15.60;99.90;;;;;;4998871;28;20182;-38
2022/05/16 00:57:16;;;;;;;3.73;2.73;;;15.60;99.90;;;;;;4999025;28;20257;-37
2022/05/16 01:00:05;;;;;;;3.90;3.13;;;15.60;99.90;;;;;;4998855;28;20263;-37
2022/05/16 01:05:19;;;;;;;4.23;3.37;;;15.60;99.90;;;;;;5014914;28;20205;-38
2022/05/16 01:07:45;;;;;;;4.70;3.00;;;15.60;99.90;;;;;;4998657;28;20183;-39
2022/05/16 01:10:21;;;;;;;4.63;3.10;;;15.50;99.90;;;;;;4998741;28;20186;-40
2022/05/16 01:12:50;;;;;;;3.60;2.83;;;15.50;99.90;;;;;;4998554;28;20189;-41
2022/05/16 01:15:33;;;;;;;6.07;2.80;;;15.50;99.90;;;;;;5014680;28;20221;-37
2022/05/16 01:17:59;;;;;;;6.00;2.90;;;15.50;99.90;;;;;;4998636;28;20193;-38
2022/05/16 01:20:36;;;;;;;4.53;3.00;;;15.50;99.90;;;;;;4998357;28;20202;-36
2022/05/16 01:23:02;;;;;;;4.30;3.30;;;15.50;99.90;;;;;;5015108;28;20186;-35
2022/05/16 01:25:29;;;;;;;3.10;2.80;;;15.60;99.90;;;;;;5014622;28;20270;-35
2022/05/16 01:27:57;;;;;;;4.50;3.40;;;15.60;99.90;;;;;;4998397;28;20177;-35
2022/05/16 01:30:30;;;;;;;6.30;2.93;;;15.60;99.90;;;;;;5014819;28;20186;-35
2022/05/16 01:32:56;;;;;;;4.27;3.30;;;15.60;99.90;;;;;;5014628;28;20630;-35
2022/05/16 01:35:26;;;;;;;4.70;3.40;;;15.60;99.90;;;;;;5014757;28;20221;-35
2022/05/16 01:40:37;;;;;;;6.13;3.60;;;15.70;99.90;;;;;;5014563;28;20214;-34
2022/05/16 01:43:03;;;;;;;5.13;3.23;;;15.70;99.90;;;;;;5032313;28;20632;-35
2022/05/16 01:45:29;;;;;;;4.50;2.90;;;15.70;99.90;;;;;;4998174;28;20198;-35
2022/05/16 01:47:55;;;;;;;4.03;3.60;;;15.70;99.90;;;;;;5014468;28;20217;-36
2022/05/16 01:50:21;;;;;;;5.47;3.20;;;15.70;99.90;;;;;;5014124;28;20635;-36
2022/05/16 01:52:47;;;;;;;4.53;3.10;;;15.50;99.90;;;;;;4997927;28;20178;-35
2022/05/16 01:55:14;;;;;;;3.27;2.77;;;15.30;99.90;;;;;;4997916;28;20210;-35
2022/05/16 01:57:40;;;;;;;4.43;3.20;;;15.10;99.90;;;;;;4997831;28;20716;-35
2022/05/16 02:00:10;;;;;;;3.73;3.20;;;15.10;99.90;;;;;;5013909;28;20203;-35
2022/05/16 02:02:42;;;;;;;6.67;3.50;;;15.00;99.90;;;;;;4998187;28;20189;-35
2022/05/16 02:05:14;;;;;;;3.33;3.03;;;14.90;99.90;;;;;;4997847;28;20209;-34
2022/05/16 02:07:40;;;;;;;4.53;3.40;;;14.80;99.90;;;;;;4997624;28;20182;-35
2022/05/16 02:10:09;;;;;;;4.37;3.23;;;14.50;99.90;;;;;;4997468;28;20193;-35
2022/05/16 02:12:35;;;;;;;6.93;3.20;;;14.50;99.90;;;;;;4998055;28;20206;-34
2022/05/16 02:15:02;;;;;;;6.10;3.07;;;14.50;99.90;;;;;;5013926;28;20685;-35
2022/05/16 02:17:28;;;;;;;4.23;3.17;;;14.60;99.90;;;;;;5031698;28;20644;-35
2022/05/16 02:19:54;;;;;;;3.70;3.37;;;14.70;99.90;;;;;;4997389;28;20206;-35
2022/05/16 02:25:05;;;;;;;4.00;3.07;;;14.90;99.90;;;;;;5031787;28;20197;-34
2022/05/16 02:27:32;;;;;;;6.63;2.90;;;14.90;99.90;;;;;;5014376;28;20185;-35
2022/05/16 02:29:57;;;;;;;4.20;2.83;;;15.00;99.90;;;;;;5031382;28;20179;-34
2022/05/16 02:32:23;;;;;;;4.57;3.30;;;15.00;99.90;;;;;;5031551;28;20178;-36
2022/05/16 02:34:50;;;;;;;4.37;3.00;;;15.00;99.90;;;;;;5014022;28;20202;-38
2022/05/16 02:37:16;;;;;;;4.27;3.20;;;15.10;99.90;;;;;;5013678;28;20189;-38
2022/05/16 02:39:45;;;;;;;3.90;3.23;;;15.00;99.90;;;;;;4997007;28;20238;-37
2022/05/16 02:42:14;;;;;;;5.27;3.20;;;15.10;99.90;;;;;;4997079;28;20182;-40
2022/05/16 02:44:44;;;;;;;5.17;3.50;;;15.10;99.90;;;;;;5013402;28;20202;-38
2022/05/16 02:47:19;;;;;;;4.67;3.50;;;15.10;99.90;;;;;;4997020;28;20182;-37
2022/05/16 02:49:45;;;;;;;5.97;3.13;;;15.20;99.90;;;;;;4997205;28;20274;-40
2022/05/16 02:52:11;;;;;;;4.53;3.10;;;15.20;99.90;;;;;;4997232;28;20202;-37
2022/05/16 02:54:37;;;;;;;5.37;3.40;;;15.20;99.90;;;;;;4997101;28;20218;-36
2022/05/16 02:57:05;;;;;;;4.27;2.93;;;15.20;99.90;;;;;;4997190;28;20178;-41
2022/05/16 02:59:33;;;;;;;3.80;3.23;;;15.20;99.90;;;;;;4996655;28;20214;-38
2022/05/16 03:02:07;;;;;;;3.97;3.20;;;15.30;99.90;;;;;;5012465;28;20185;-39
2022/05/16 03:04:34;;;;;;;5.17;3.03;;;15.30;99.90;;;;;;5031082;28;20233;-43
2022/05/16 03:07:01;;;;;;;7.63;3.30;;;15.40;99.90;;;;;;4997040;28;20573;-39
2022/05/16 03:09:27;;;;;;;3.60;3.20;;;15.40;99.90;;;;;;5012979;28;20178;-38
2022/05/16 03:11:54;;;;;;;3.70;3.00;;;15.30;99.90;;;;;;4996898;28;20198;-39
2022/05/16 03:14:20;;;;;;;3.47;3.17;;;15.30;99.90;;;;;;4996778;28;20273;-37
2022/05/16 03:16:46;;;;;;;4.53;3.23;;;15.30;99.90;;;;;;5013248;28;20187;-37
2022/05/16 03:19:12;;;;;;;3.63;3.30;;;15.20;99.90;;;;;;4996669;28;20218;-37
2022/05/16 03:21:38;;;;;;;5.23;3.47;;;15.20;99.90;;;;;;5013324;28;20268;-37
2022/05/16 03:24:05;;;;;;;4.57;3.37;;;15.10;99.90;;;;;;5012970;28;20182;-40
2022/05/16 03:26:31;;;;;;;4.47;3.67;;;15.10;99.90;;;;;;4996534;28;20202;-39
2022/05/16 03:28:57;;;;;;;6.13;3.30;;;15.20;99.90;;;;;;4996552;28;20178;-37
2022/05/16 03:31:23;;;;;;;5.87;3.40;;;15.20;99.90;;;;;;4996630;28;20189;-37
2022/05/16 03:33:49;;;;;;;3.80;3.40;;;15.20;99.90;;;;;;4996557;28;20278;-37
2022/05/16 03:36:15;;;;;;;4.83;3.53;;;15.20;99.90;;;;;;5012979;28;20210;-37
2022/05/16 03:41:25;;;;;;;4.27;3.33;;;15.20;99.90;;;;;;5012768;28;20206;-39
2022/05/16 03:43:51;;;;;;;4.57;3.40;;;15.10;99.90;;;;;;4996529;28;20269;-38
2022/05/16 03:46:17;;;;;;;4.47;3.60;;;15.20;99.90;;;;;;4996710;28;20289;-41
2022/05/16 03:48:43;;;;;;;3.53;3.23;;;15.20;99.90;;;;;;4996720;28;20182;-37
2022/05/16 03:51:12;;;;;;;4.90;3.50;;;15.20;99.90;;;;;;4996289;28;20269;-40
2022/05/16 03:53:46;;;;;;;4.10;3.50;;;15.20;99.90;;;;;;5030411;28;20274;-40
2022/05/16 03:56:14;;;;;;;4.93;3.77;;;15.20;99.90;;;;;;5012620;28;20238;-39
2022/05/16 03:58:39;;;;;;;3.93;3.27;;;15.20;99.90;;;;;;5030640;28;20175;-37
2022/05/16 04:01:05;;;;;;;8.40;4.00;;;15.20;99.90;;;;;;4996341;28;20302;-37
2022/05/16 04:03:31;;;;;;;4.20;3.80;;;15.20;99.90;;;;;;4996302;28;20206;-37
2022/05/16 04:05:57;;;;;;;5.57;3.87;;;15.10;99.90;;;;;;4995672;28;20197;-42
2022/05/16 04:08:23;;;;;;;5.23;3.77;;;15.00;99.90;;;;;;5012396;28;20179;-38
2022/05/16 04:10:49;;;;;;;5.80;4.27;;;15.00;99.90;;;;;;5003220;28;20175;-38
2022/05/16 04:13:15;;;;;;;4.30;3.90;;;15.00;99.90;;;;;;4984771;28;20180;-41
2022/05/16 04:15:41;;;;;;;5.23;3.77;;;14.90;99.90;;;;;;4989806;28;20249;-38
2022/05/16 04:18:07;;;;;;;6.03;3.80;;;14.90;99.90;;;;;;4990261;28;20199;-38
2022/05/16 04:20:33;;;;;;;7.03;3.97;;;15.00;99.90;;;;;;4991337;28;20202;-39
2022/05/16 04:22:59;;;;;;;6.20;3.83;;;15.00;99.90;;;;;;5004996;28;20202;-38
2022/05/16 04:25:25;;;;;;;5.77;4.03;;;15.10;99.90;;;;;;4989365;28;20241;-40
2022/05/16 04:27:51;;;;;;;5.40;4.17;;;15.10;99.90;;;;;;4988011;28;20179;-41
2022/05/16 04:30:17;;;;;;;4.40;4.00;;;15.10;99.90;;;;;;5009975;28;20277;-36
2022/05/16 04:32:43;;;;;;;5.73;3.73;;;15.10;99.90;;;;;;5015659;28;20271;-39
2022/05/16 04:35:09;;;;;;;6.60;3.60;;;15.10;99.90;;;;;;4998845;28;20229;-38
2022/05/16 04:37:35;;;;;;;6.10;3.70;;;15.10;99.90;;;;;;4999344;28;20213;-38
2022/05/16 04:40:03;;;;;;;6.47;3.83;;;15.20;99.90;;;;;;5015427;28;20198;-37
2022/05/16 04:42:41;;;;;;;5.93;3.90;;;15.20;99.90;;;;;;5015745;28;20186;-38
2022/05/16 04:45:09;;;;;;;4.03;3.63;;;15.30;99.90;;;;;;5015535;28;20198;-38
2022/05/16 04:47:35;;;;;;;5.27;4.00;;;15.40;99.90;;;;;;5015542;28;20178;-39
2022/05/16 04:50:01;;;;;;;5.70;3.80;;;15.50;99.90;;;;;;4998855;28;20206;-39
2022/05/16 04:52:28;;;;;;;4.70;3.23;;;15.50;99.90;;;;;;4998896;28;20186;-38
2022/05/16 04:54:54;;;;;;;5.20;3.80;;;15.60;99.90;;;;;;5033218;28;20202;-40
2022/05/16 04:57:20;;;;;;;8.10;4.33;;;15.60;99.90;;;;;;4999051;28;20213;-37
2022/05/16 04:59:49;;;;;;;6.67;4.13;;;15.70;99.90;;;;;;5014755;28;20207;-38
2022/05/16 05:02:16;;;;;;;5.43;3.83;;;15.80;99.90;;;;;;5015125;28;20174;-38
2022/05/16 05:04:43;;;;;;;6.67;4.03;;;15.80;99.90;;;;;;5014513;28;20713;-38
2022/05/16 05:07:11;;;;;;;4.50;3.90;;;15.90;99.90;;;;;;5015149;28;20174;-38
2022/05/16 05:15:09;;;;;;;8.70;4.47;;;16.10;99.90;;;;;;5014512;28;20202;-39
2022/05/16 05:17:35;;;;;;;7.77;4.10;;;16.10;99.90;;;;;;5013932;28;20248;-39
2022/05/16 05:20:02;;;;;;;8.30;4.30;;;16.20;99.90;;;;;;4998174;28;20269;-37
2022/05/16 05:22:28;;;;;;;5.63;4.43;;;16.20;99.90;;;;;;5014525;28;20596;-38
2022/05/16 05:24:54;;;;;;;5.53;4.03;;;16.20;99.90;;;;;;5031799;28;20193;-41
2022/05/16 05:27:20;;;;;;;7.17;4.10;;;16.20;99.90;;;;;;4998054;28;20171;-37
2022/05/16 05:29:48;;;;;;;9.67;4.57;;;16.30;99.90;;;;;;5014402;28;20232;-41
2022/05/16 05:32:16;;;;;;;10.23;4.50;;;16.30;99.90;;;;;;5014796;28;20244;-45
2022/05/16 05:34:42;;;;;;;9.13;4.73;;;16.30;99.90;;;;;;5014331;28;20210;-43
2022/05/16 05:37:08;;;;;;;8.40;4.80;;;16.30;99.90;;;;;;4998247;28;20256;-39
2022/05/16 05:39:35;;;;;;;6.73;4.77;;;16.30;99.90;;;;;;5014336;28;20206;-42
2022/05/16 05:42:02;;;;;;;8.37;4.33;;;16.20;99.90;;;;;;4998444;28;20205;-38
2022/05/16 05:44:28;;;;;;;9.17;4.50;;;16.20;99.90;;;;;;5014154;28;20691;-39
2022/05/16 05:46:53;;;;;;;10.27;4.70;;;16.20;99.90;;;;;;4998257;28;20221;-40
2022/05/16 05:49:19;;;;;;;7.90;4.30;;;16.20;99.90;;;;;;5014467;28;20193;-38
2022/05/16 05:51:45;;;;;;;8.63;3.93;;;16.30;99.90;;;;;;5014468;28;20182;-35
2022/05/16 05:54:11;;;;;;;5.90;4.13;;;16.30;99.90;;;;;;5031986;28;20178;-35
2022/05/16 05:56:37;;;;;;;10.70;4.20;;;16.30;99.90;;;;;;5014350;28;20669;-36
2022/05/16 05:59:04;;;;;;;9.97;4.53;;;16.30;99.90;;;;;;5015755;28;20195;-35
2022/05/16 06:01:31;;;;;;;75.57;46.03;;;16.40;99.90;;;;;;5012341;28;20199;-38
2022/05/16 06:03:58;;;;;;;30.77;21.97;;;16.30;99.90;;;;;;4978258;28;20206;-37
2022/05/16 06:06:25;;;;;;;18.53;13.40;;;16.20;99.90;;;;;;4994349;28;20203;-38
2022/05/16 06:08:51;;;;;;;10.93;8.80;;;16.30;99.90;;;;;;4978013;28;20181;-41
2022/05/16 06:11:17;;;;;;;7.43;5.40;;;16.40;99.90;;;;;;5019817;28;20225;-38
2022/05/16 06:13:43;;;;;;;6.57;5.40;;;16.40;99.90;;;;;;5013335;28;20576;-38
2022/05/16 06:16:10;;;;;;;7.03;4.70;;;16.40;99.90;;;;;;5014312;28;20190;-39
2022/05/16 06:18:37;;;;;;;6.33;4.87;;;16.50;99.90;;;;;;5031769;28;20185;-38
2022/05/16 06:21:04;;;;;;;10.83;4.63;;;16.60;99.90;;;;;;5013631;28;20273;-38
2022/05/16 06:23:29;;;;;;;6.17;4.77;;;16.60;99.90;;;;;;5013859;28;20186;-38
2022/05/16 06:25:57;;;;;;;9.57;7.30;;;16.60;99.90;;;;;;4997567;28;20293;-38
2022/05/16 06:28:26;;;;;;;7.70;6.50;;;16.70;99.90;;;;;;5013627;28;20175;-39
2022/05/16 06:30:52;;;;;;;8.23;6.53;;;16.90;99.90;;;;;;5007428;28;20183;-38
2022/05/16 06:33:20;;;;;;;7.83;6.57;;;17.10;99.90;;;;;;4995242;28;20199;-42
2022/05/16 06:35:48;;;;;;;7.85;5.90;;;17.30;99.90;;;;;;4990992;28;20234;-39
2022/05/16 06:38:18;;;;;;;10.38;6.65;;;17.50;99.90;;;;;;5006134;28;20237;-38
2022/05/16 06:40:46;;;;;;;16.25;12.07;;;17.60;99.90;;;;;;5003489;28;20203;-38
2022/05/16 06:43:12;;;;;;;15.27;9.73;;;17.80;99.90;;;;;;5004450;28;20182;-38
2022/05/16 06:45:39;;;;;;;10.45;7.82;;;18.10;99.90;;;;;;4983473;28;20293;-38
2022/05/16 06:48:05;;;;;;;9.88;8.40;;;18.40;99.90;;;;;;4992837;28;20214;-43
2022/05/16 06:50:33;;;;;;;7.55;6.55;;;18.50;99.90;;;;;;4983272;28;20218;-40
2022/05/16 06:52:59;;;;;;;8.15;7.32;;;18.80;99.90;;;;;;4990692;28;20183;-40
2022/05/16 06:55:25;;;;;;;6.88;5.72;;;18.90;99.90;;;;;;5005188;28;20226;-40
2022/05/16 06:57:51;;;;;;;6.47;5.53;;;18.90;99.90;;;;;;5009593;28;20178;-38
2022/05/16 07:00:19;;;;;;;7.78;5.60;;;19.00;99.90;;;;;;4998763;28;20230;-39
2022/05/16 07:02:45;;;;;;;6.97;5.20;;;19.20;99.90;;;;;;4985254;28;20178;-37
2022/05/16 07:05:11;;;;;;;4.93;4.32;;;19.30;99.90;;;;;;5030057;28;20264;-38
2022/05/16 07:07:37;;;;;;;5.32;4.82;;;19.40;99.90;;;;;;5030894;28;20174;-39
2022/05/16 07:10:04;;;;;;;6.15;4.30;;;19.50;99.90;;;;;;5013093;28;20209;-39
2022/05/16 07:12:30;;;;;;;5.95;4.25;;;19.60;99.90;;;;;;5013680;28;20232;-38
2022/05/16 07:14:55;;;;;;;4.82;4.32;;;19.60;99.90;;;;;;5006472;28;20206;-39
2022/05/16 07:17:21;;;;;;;5.53;4.03;;;19.60;99.90;;;;;;4987768;28;20179;-39
2022/05/16 07:19:49;;;;;;;4.43;3.75;;;19.70;99.90;;;;;;4992382;28;20198;-39
2022/05/16 07:22:19;;;;;;;4.38;3.80;;;20.00;99.90;;;;;;5012830;28;20190;-39
2022/05/16 07:24:46;;;;;;;5.38;3.70;;;20.30;99.90;;;;;;5030788;28;20233;-38
2022/05/16 07:29:57;;;;;;;5.30;4.03;;;20.50;99.90;;;;;;5013088;28;20302;-39
2022/05/16 07:32:31;;;;;;;7.22;4.30;;;20.50;99.90;;;;;;5012902;28;20183;-40
2022/05/16 07:35:01;;;;;;;4.78;3.40;;;20.60;99.90;;;;;;5012109;28;20320;-39
2022/05/16 07:37:26;;;;;;;4.43;3.78;;;20.70;99.90;;;;;;5012871;28;20183;-40
2022/05/16 07:39:52;;;;;;;5.07;3.72;;;20.70;99.90;;;;;;4996330;28;20218;-38
2022/05/16 07:42:18;;;;;;;3.30;3.00;;;20.70;99.90;;;;;;4996774;28;20265;-39
2022/05/16 07:44:44;;;;;;;3.50;3.20;;;20.70;99.90;;;;;;5030637;28;20199;-37
2022/05/16 07:47:10;;;;;;;4.13;3.40;;;20.80;99.90;;;;;;4996501;28;20218;-40
2022/05/16 07:49:36;;;;;;;5.45;4.20;;;20.90;99.90;;;;;;4998914;28;20182;-39
2022/05/16 07:52:03;;;;;;;4.20;3.80;;;21.10;99.90;;;;;;5016761;28;20182;-39
2022/05/16 07:54:29;;;;;;;5.40;3.70;;;21.30;99.90;;;;;;5016751;28;20233;-40
2022/05/16 07:56:55;;;;;;;3.83;3.42;;;21.40;99.90;;;;;;5000419;28;20233;-38
2022/05/16 07:59:20;;;;;;;6.22;4.43;;;21.50;99.90;;;;;;5016192;28;20218;-41
2022/05/16 08:01:46;;;;;;;5.68;4.00;;;21.60;99.90;;;;;;5016420;28;20205;-39
2022/05/16 08:04:14;;;;;;;4.85;3.58;;;21.70;99.90;;;;;;5016268;28;20292;-39
2022/05/16 08:06:40;;;;;;;4.28;3.88;;;21.80;99.90;;;;;;5016162;28;20179;-38
2022/05/16 08:11:51;;;;;;;7.82;3.80;;;21.80;99.90;;;;;;5033963;28;20187;-38
2022/05/16 08:14:17;;;;;;;6.20;3.90;;;21.90;99.90;;;;;;5015948;28;20228;-38
2022/05/16 08:16:43;;;;;;;5.47;3.85;;;21.90;99.90;;;;;;5016055;28;20254;-39
2022/05/16 08:19:09;;;;;;;5.20;4.18;;;22.20;99.90;;;;;;4999353;28;20347;-39
2022/05/16 08:21:36;;;;;;;4.90;4.10;;;22.50;99.90;;;;;;5015965;28;20179;-38
2022/05/16 08:24:04;;;;;;;4.70;3.97;;;22.70;99.90;;;;;;5015762;28;20178;-39
2022/05/16 08:26:30;;;;;;;4.88;3.80;;;23.00;99.90;;;;;;5015628;28;20199;-39
2022/05/16 08:28:56;;;;;;;4.65;4.00;;;23.20;99.90;;;;;;5015523;28;20193;-39
2022/05/16 08:31:28;;;;;;;9.38;4.10;;;23.40;99.90;;;;;;5015776;28;20175;-40
2022/05/16 08:33:56;;;;;;;5.57;4.03;;;23.50;99.90;;;;;;5016276;28;20205;-38
2022/05/16 08:41:57;;;;;;;5.35;3.92;;;24.20;99.90;;;;;;5013973;28;20186;-40
2022/05/16 08:44:56;;;;;;;5.95;4.00;;;24.50;99.90;;;;;;5014537;28;20194;-39
2022/05/16 08:47:31;;;;;;;7.47;4.40;;;24.80;99.90;;;;;;5014564;28;20183;-39
2022/05/16 08:50:02;;;;;;;4.35;3.95;;;25.00;99.90;;;;;;5014064;28;20186;-39
2022/05/16 08:52:40;;;;;;;6.32;4.10;;;24.90;99.90;;;;;;5030648;28;20179;-40
2022/05/16 08:55:24;;;;;;;6.47;4.40;;;24.90;99.90;;;;;;5014497;28;20210;-40
2022/05/16 08:58:01;;;;;;;5.53;4.20;;;24.90;99.90;;;;;;5033072;28;20174;-40
2022/05/16 09:00:41;;;;;;;7.53;4.55;;;25.00;99.90;;;;;;5014443;28;20233;-39
2022/05/16 09:03:12;;;;;;;8.48;4.95;;;24.90;99.90;;;;;;5015370;28;20520;-39
2022/05/16 09:05:49;;;;;;;11.25;4.55;;;24.90;99.90;;;;;;5015150;28;20213;-40
2022/05/16 09:08:40;;;;;;;7.40;4.00;;;24.90;99.90;;;;;;5015292;28;20182;-39
2022/05/16 09:11:18;;;;;;;5.13;3.85;;;24.80;99.90;;;;;;4985146;28;20189;-38
2022/05/16 09:13:56;;;;;;;7.53;3.95;;;24.60;99.90;;;;;;5015064;28;20201;-39
2022/05/16 09:16:59;;;;;;;8.02;4.03;;;24.80;99.90;;;;;;5014910;28;20229;-39
2022/05/16 09:20:07;;;;;;;10.32;4.35;;;24.80;99.90;;;;;;5013939;28;20217;-38
2022/05/16 09:22:44;;;;;;;9.68;3.92;;;24.70;99.90;;;;;;5014290;28;20182;-41
2022/05/16 09:25:20;;;;;;;6.30;3.90;;;24.60;99.90;;;;;;4998000;28;20194;-41
2022/05/16 09:30:38;;;;;;;7.15;3.80;;;24.70;99.90;;;;;;5032552;28;20187;-37
2022/05/16 09:33:24;;;;;;;9.75;4.20;;;24.70;99.90;;;;;;5031902;28;20240;-39
2022/05/16 09:35:55;;;;;;;8.63;4.32;;;24.70;99.90;;;;;;5014317;28;20210;-39
2022/05/16 09:38:22;;;;;;;9.55;3.97;;;24.80;99.90;;;;;;5014555;28;20181;-40
2022/05/16 09:41:20;;;;;;;11.13;4.07;;;24.90;99.90;;;;;;5014003;28;20236;-40
2022/05/16 09:44:15;;;;;;;15.93;4.70;;;25.10;99.90;;;;;;5014302;28;20187;-42
2022/05/16 09:46:43;;;;;;;6.25;3.70;;;25.20;99.90;;;;;;5004154;28;20186;-41
2022/05/16 09:49:21;;;;;;;9.30;3.70;;;25.60;99.90;;;;;;5014300;28;20185;-45
2022/05/16 09:51:51;;;;;;;4.55;3.47;;;25.80;99.90;;;;;;5014073;28;20186;-43
2022/05/16 09:54:38;;;;;;;7.18;3.83;;;25.80;99.90;;;;;;5011903;28;20232;-44
2022/05/16 09:57:04;;;;;;;15.55;4.80;;;25.70;99.90;;;;;;4985790;28;20198;-43
2022/05/16 09:59:38;;;;;;;7.90;3.88;;;25.60;99.90;;;;;;4988260;28;20214;-43
2022/05/16 10:02:32;;;;;;;7.13;3.75;;;25.50;99.90;;;;;;5003218;28;20179;-42
2022/05/16 10:05:20;;;;;;;7.97;4.07;;;25.20;99.90;;;;;;4984541;28;20199;-42
2022/05/16 10:08:03;;;;;;;15.32;4.43;;;25.20;99.90;;;;;;5003232;28;20170;-42
2022/05/16 10:10:38;;;;;;;8.57;4.32;;;25.00;99.90;;;;;;5024486;28;20237;-43
2022/05/16 10:13:04;;;;;;;9.60;3.97;;;24.90;99.90;;;;;;5013864;28;20193;-42
2022/05/16 10:15:35;;;;;;;6.13;3.95;;;24.70;99.90;;;;;;5008807;28;20194;-41
2022/05/16 10:18:07;;;;;;;4.63;3.50;;;24.70;99.90;;;;;;4988458;28;20175;-40
2022/05/16 10:20:42;;;;;;;7.40;3.97;;;24.60;99.90;;;;;;5003692;28;20195;-42
2022/05/16 10:23:19;;;;;;;17.98;4.70;;;24.30;99.90;;;;;;4995166;28;20483;-45
2022/05/16 10:25:48;;;;;;;7.90;3.97;;;24.20;99.90;;;;;;4985266;28;20199;-40
2022/05/16 10:28:28;;;;;;;7.20;3.50;;;24.00;99.90;;;;;;4985857;28;20265;-40
2022/05/16 10:33:46;;;;;;;6.28;3.50;;;23.70;99.90;;;;;;5028145;28;20207;-41
2022/05/16 10:36:25;;;;;;;5.93;3.85;;;23.60;99.90;;;;;;5022297;28;20206;-40
2022/05/16 10:39:00;;;;;;;5.32;2.95;;;23.40;99.90;;;;;;5026119;28;20257;-40
2022/05/16 10:41:32;;;;;;;5.28;3.00;;;23.20;99.90;;;;;;5004255;28;20166;-43
2022/05/16 10:44:32;;;;;;;18.33;3.88;;;23.00;99.90;;;;;;5003902;28;20195;-41
2022/05/16 10:47:19;;;;;;;6.38;2.90;;;22.90;99.90;;;;;;5037906;28;20174;-41
2022/05/16 10:49:50;;;;;;;5.88;3.05;;;22.90;99.90;;;;;;5009406;28;20190;-40
2022/05/16 10:52:43;;;;;;;4.32;2.63;;;22.80;99.90;;;;;;4977397;28;20183;-40
2022/05/16 10:55:10;;;;;;;8.98;2.97;;;22.80;99.90;;;;;;4993808;28;20195;-39
2022/05/16 10:58:19;;;;;;;16.67;3.33;;;22.60;99.90;;;;;;4977808;28;20183;-46
2022/05/16 11:01:05;;;;;;;7.43;2.65;;;22.50;99.90;;;;;;4977199;28;20217;-39
2022/05/16 11:03:45;;;;;;;8.88;3.10;;;22.40;99.90;;;;;;4977030;28;20195;-39
2022/05/16 11:06:49;;;;;;;7.00;3.17;;;22.30;99.90;;;;;;5011213;28;20183;-41
2022/05/16 11:09:36;;;;;;;23.85;4.78;;;21.80;99.90;;;;;;4977169;28;20187;-39
2022/05/16 11:12:14;;;;;;;7.60;3.10;;;21.30;99.90;;;;;;4993577;28;20209;-38
2022/05/16 11:15:15;;;;;;;10.68;3.40;;;21.10;99.90;;;;;;5011077;28;20187;-39
2022/05/16 11:18:03;;;;;;;7.72;3.30;;;20.60;99.90;;;;;;4993400;28;20187;-39
2022/05/16 11:20:43;;;;;;;9.15;3.42;;;20.20;99.90;;;;;;4977145;28;20294;-36
2022/05/16 11:23:24;;;;;;;4.78;2.92;;;20.00;99.90;;;;;;4978027;28;20175;-38
2022/05/16 11:25:56;;;;;;;5.05;3.10;;;19.80;99.90;;;;;;4997447;28;20195;-36
2022/05/16 11:31:58;;;;;;;6.13;3.22;;;19.70;99.90;;;;;;4996551;28;20648;-40
2022/05/16 11:34:50;;;;;;;6.38;3.80;;;19.70;99.90;;;;;;4996922;28;20194;-40
2022/05/16 11:37:30;;;;;;;5.20;3.20;;;19.70;99.90;;;;;;4984299;28;20242;-39
2022/05/16 11:40:06;;;;;;;6.55;3.33;;;19.60;99.90;;;;;;5014336;28;20210;-39
2022/05/16 11:42:56;;;;;;;4.60;2.80;;;19.40;99.90;;;;;;4997175;28;20171;-41
2022/05/16 11:45:38;;;;;;;7.00;3.00;;;19.40;99.90;;;;;;4997590;28;20203;-36
2022/05/16 11:48:25;;;;;;;6.80;2.47;;;19.50;99.90;;;;;;4982543;28;20258;-36
2022/05/16 11:51:32;;;;;;;4.57;2.78;;;19.50;99.90;;;;;;4979973;28;20226;-35
2022/05/16 11:54:01;;;;;;;5.47;2.97;;;19.60;99.90;;;;;;5012768;28;20742;-34
2022/05/16 12:02:30;;;;;;;3.67;2.20;;;19.90;99.90;;;;;;4995780;28;20554;-33
2022/05/16 12:05:29;;;;;;;6.68;3.08;;;19.90;99.90;;;;;;4996485;28;20191;-35
2022/05/16 12:08:13;;;;;;;4.68;3.03;;;20.00;99.90;;;;;;4980297;28;20187;-34
2022/05/16 12:11:04;;;;;;;4.93;3.33;;;20.00;99.90;;;;;;4980339;28;20230;-34
2022/05/16 12:13:39;;;;;;;4.50;2.63;;;19.90;99.90;;;;;;4996434;28;20194;-36
2022/05/16 12:16:16;;;;;;;7.47;3.10;;;20.00;99.90;;;;;;4989823;28;20209;-39
2022/05/16 12:18:48;;;;;;;5.97;3.45;;;20.00;99.90;;;;;;4989696;28;20191;-40
2022/05/16 12:21:31;;;;;;;5.90;2.58;;;20.00;99.90;;;;;;5006933;28;20203;-42
2022/05/16 12:24:01;;;;;;;4.47;2.50;;;20.10;99.90;;;;;;4988835;28;20179;-39
2022/05/16 12:26:28;;;;;;;4.72;2.83;;;20.20;99.90;;;;;;5004778;28;20229;-36
2022/05/16 12:29:14;;;;;;;5.82;3.47;;;20.40;99.90;;;;;;5007217;28;20270;-42
2022/05/16 12:31:45;;;;;;;8.38;3.00;;;20.40;99.90;;;;;;5028083;28;20179;-40
2022/05/16 12:34:12;;;;;;;7.32;3.75;;;20.40;99.90;;;;;;5006350;28;20175;-36
2022/05/16 12:36:40;;;;;;;5.90;3.55;;;20.50;99.90;;;;;;5006442;28;20195;-38
2022/05/16 12:39:32;;;;;;;7.35;4.20;;;20.40;99.90;;;;;;4988368;28;20171;-40
2022/05/16 12:42:36;;;;;;;6.75;4.40;;;20.40;99.90;;;;;;5004968;28;20180;-37
2022/05/16 12:45:25;;;;;;;7.22;4.15;;;20.40;99.90;;;;;;5028068;28;20186;-36
2022/05/16 12:48:22;;;;;;;5.25;3.72;;;20.50;99.90;;;;;;5003958;28;20179;-36
2022/05/16 12:50:56;;;;;;;7.80;4.28;;;20.50;99.90;;;;;;5002062;28;20182;-36
2022/05/16 12:53:45;;;;;;;5.90;3.97;;;20.60;99.90;;;;;;4991646;28;20183;-36
2022/05/16 12:56:59;;;;;;;6.90;4.05;;;20.40;99.90;;;;;;5028191;28;20222;-37
2022/05/16 12:59:47;;;;;;;7.72;4.53;;;20.50;99.90;;;;;;4926572;29;20210;-37
2022/05/16 13:02:34;;;;;;;7.78;4.20;;;20.60;99.90;;;;;;4927501;29;20184;-37
2022/05/16 13:05:22;;;;;;;8.38;4.43;;;20.60;99.90;;;;;;4986375;28;20206;-36
2022/05/16 13:08:13;;;;;;;5.68;3.88;;;20.60;99.90;;;;;;5032372;28;20176;-36
2022/05/16 13:11:19;;;;;;;5.72;3.60;;;20.90;99.90;;;;;;5029203;28;20175;-37
2022/05/16 13:13:48;;;;;;;7.60;4.10;;;21.30;99.90;;;;;;4978343;28;20198;-37
2022/05/16 13:16:24;;;;;;;5.38;3.80;;;21.90;99.90;;;;;;4995579;28;20207;-37
2022/05/16 13:19:08;;;;;;;5.63;3.97;;;22.30;99.90;;;;;;4995390;28;20179;-39
2022/05/16 13:21:50;;;;;;;6.82;3.80;;;22.70;99.90;;;;;;5000711;28;20207;-38
2022/05/16 13:24:18;;;;;;;4.88;3.63;;;22.80;99.90;;;;;;5002848;28;20191;-38
2022/05/16 13:29:35;;;;;;;6.80;3.85;;;23.50;99.90;;;;;;5035344;28;20699;-37
2022/05/16 13:32:29;;;;;;;5.22;3.50;;;23.60;99.90;;;;;;4986767;28;20182;-38
2022/05/16 13:35:01;;;;;;;6.20;3.63;;;23.80;99.90;;;;;;4981370;28;20218;-38
2022/05/16 13:37:40;;;;;;;6.53;3.28;;;23.80;99.90;;;;;;5004899;28;20307;-37
2022/05/16 13:40:13;;;;;;;5.25;3.50;;;23.70;99.90;;;;;;5001331;28;20194;-37
2022/05/16 13:42:42;;;;;;;7.03;4.13;;;23.80;99.90;;;;;;4999599;28;20558;-37
2022/05/16 13:45:09;;;;;;;5.25;3.20;;;23.90;99.90;;;;;;4996346;28;20228;-39
2022/05/16 13:47:40;;;;;;;4.97;3.25;;;23.90;99.90;;;;;;5030994;28;20185;-39
2022/05/16 13:50:07;;;;;;;4.57;3.40;;;24.00;99.90;;;;;;5030899;28;20175;-41
2022/05/16 13:52:41;;;;;;;6.70;3.20;;;23.90;99.90;;;;;;5014020;28;20183;-41
2022/05/16 13:55:10;;;;;;;5.57;3.63;;;23.80;99.90;;;;;;5012726;28;20206;-38